Time;durP1;ratioP1;P1;durP2;ratioP2;P2;SDS_P1;SDS_P2;PMS_P1;PMS_P2;Temp;Humidity;BMP_temperature;BMP_pressure;BME280_temperature;BME280_humidity;BME280_pressure;Samples;Min_cycle;Max_cycle;Signal;HPM_P1;HPM_P2
2022/11/24 00:00:50;;;;;;;7.53;2.08;;;17.90;46.80;;;;;;5057768;28;20036;-57
2022/11/24 00:03:16;;;;;;;5.13;1.95;;;17.90;46.80;;;;;;5023760;28;20037;-55
2022/11/24 00:05:42;;;;;;;5.30;2.00;;;17.90;46.80;;;;;;5039780;28;20452;-56
2022/11/24 00:08:08;;;;;;;5.22;1.77;;;17.90;47.40;;;;;;5057666;28;20035;-55
2022/11/24 00:10:34;;;;;;;5.53;1.70;;;17.90;46.80;;;;;;5057514;28;20025;-58
2022/11/24 00:13:00;;;;;;;4.47;1.70;;;17.90;46.70;;;;;;5039717;28;20429;-58
2022/11/24 00:15:26;;;;;;;4.47;2.05;;;17.90;46.70;;;;;;5057278;28;20025;-60
2022/11/24 00:17:52;;;;;;;5.13;1.80;;;17.90;46.70;;;;;;5057237;28;20352;-57
2022/11/24 00:20:18;;;;;;;4.47;1.70;;;17.90;46.70;;;;;;5057190;28;20107;-55
2022/11/24 00:22:44;;;;;;;5.78;1.92;;;17.90;46.80;;;;;;5039775;28;20067;-58
2022/11/24 00:25:09;;;;;;;5.53;2.08;;;17.80;46.70;;;;;;5039850;28;20044;-56
2022/11/24 00:27:35;;;;;;;7.20;2.30;;;17.90;46.80;;;;;;5057404;28;20037;-55
2022/11/24 00:30:01;;;;;;;6.95;2.22;;;17.90;46.70;;;;;;5056904;28;20037;-59
2022/11/24 00:32:28;;;;;;;6.20;2.38;;;17.90;46.70;;;;;;5039303;28;20441;-53
2022/11/24 00:34:54;;;;;;;4.25;1.90;;;17.80;47.30;;;;;;5056943;28;20033;-57
2022/11/24 00:37:20;;;;;;;5.15;2.30;;;17.80;46.70;;;;;;5057796;28;20100;-56
2022/11/24 00:39:45;;;;;;;7.25;1.90;;;17.90;46.70;;;;;;5056928;28;20086;-57
2022/11/24 00:42:13;;;;;;;5.63;1.70;;;17.80;46.60;;;;;;5056754;28;20040;-55
2022/11/24 00:44:39;;;;;;;5.88;2.10;;;17.90;46.70;;;;;;5056947;28;20451;-58
2022/11/24 00:47:05;;;;;;;5.65;1.65;;;17.80;46.60;;;;;;5055893;28;20043;-58
2022/11/24 00:49:31;;;;;;;4.55;1.70;;;17.80;46.60;;;;;;5056822;28;20040;-56
2022/11/24 00:51:56;;;;;;;4.68;1.70;;;17.90;46.60;;;;;;5056711;28;20037;-59
2022/11/24 00:54:23;;;;;;;5.55;1.83;;;17.90;46.60;;;;;;5038941;28;20029;-58
2022/11/24 00:56:49;;;;;;;5.10;1.80;;;17.80;46.60;;;;;;5056914;28;20085;-59
2022/11/24 00:59:14;;;;;;;5.03;1.75;;;17.90;46.60;;;;;;5056105;28;20028;-57
2022/11/24 01:01:41;;;;;;;5.80;1.75;;;17.80;46.50;;;;;;5056648;28;20064;-57
2022/11/24 01:04:07;;;;;;;6.07;1.85;;;17.80;46.50;;;;;;5056682;28;20036;-55
2022/11/24 01:06:34;;;;;;;5.97;1.88;;;17.90;46.60;;;;;;5056151;28;20041;-55
2022/11/24 01:09:01;;;;;;;3.97;1.60;;;17.80;46.50;;;;;;5038553;28;20087;-53
2022/11/24 01:14:18;;;;;;;3.55;1.40;;;17.80;46.50;;;;;;5056065;28;20104;-57
2022/11/24 01:16:43;;;;;;;6.07;1.70;;;17.80;46.50;;;;;;5056042;28;20103;-57
2022/11/24 01:19:09;;;;;;;7.20;1.92;;;17.80;46.50;;;;;;5038327;28;20409;-56
2022/11/24 01:21:35;;;;;;;6.25;1.92;;;17.80;46.50;;;;;;5055892;28;20051;-55
2022/11/24 01:24:01;;;;;;;6.57;1.83;;;17.80;46.50;;;;;;5056318;28;20121;-54
2022/11/24 01:26:27;;;;;;;4.15;1.60;;;17.80;46.50;;;;;;5055676;28;20047;-58
2022/11/24 01:28:55;;;;;;;7.03;1.90;;;17.80;46.50;;;;;;5056038;28;20044;-55
2022/11/24 01:31:21;;;;;;;5.18;1.48;;;17.80;46.40;;;;;;5038872;28;20135;-56
2022/11/24 01:33:47;;;;;;;4.78;1.73;;;17.80;46.40;;;;;;5055856;28;20029;-59
2022/11/24 01:36:13;;;;;;;6.60;1.95;;;17.80;46.40;;;;;;5055667;28;20037;-56
2022/11/24 01:38:39;;;;;;;5.28;1.50;;;17.80;46.40;;;;;;5055851;28;20029;-54
2022/11/24 01:41:15;;;;;;;4.35;1.63;;;17.80;46.40;;;;;;5037957;28;20353;-57
2022/11/24 01:43:43;;;;;;;4.05;1.73;;;17.80;46.40;;;;;;5055704;28;20041;-56
2022/11/24 01:46:27;;;;;;;4.90;1.90;;;17.80;46.30;;;;;;5038039;28;20128;-54
2022/11/24 01:49:08;;;;;;;5.00;1.55;;;17.80;46.30;;;;;;5037987;28;20487;-57
2022/11/24 01:51:37;;;;;;;5.38;1.77;;;17.80;46.30;;;;;;5056207;28;20044;-55
2022/11/24 01:54:20;;;;;;;4.78;1.70;;;17.80;46.30;;;;;;5037831;28;20033;-57
2022/11/24 01:56:47;;;;;;;4.32;1.48;;;17.80;46.30;;;;;;5037469;28;20072;-55
2022/11/24 01:59:16;;;;;;;3.47;1.35;;;17.80;46.30;;;;;;5037576;28;20444;-58
2022/11/24 02:01:42;;;;;;;5.65;2.03;;;17.80;46.30;;;;;;5038182;28;20047;-56
2022/11/24 02:04:13;;;;;;;5.65;1.90;;;17.80;46.30;;;;;;5055135;28;20025;-59
2022/11/24 02:06:41;;;;;;;4.60;1.67;;;17.80;46.30;;;;;;5055423;28;20080;-56
2022/11/24 02:09:22;;;;;;;4.95;1.42;;;17.80;46.30;;;;;;5055197;28;20439;-56
2022/11/24 02:11:49;;;;;;;5.20;1.60;;;17.80;46.30;;;;;;5037752;28;20448;-57
2022/11/24 02:14:17;;;;;;;5.38;1.60;;;17.80;46.30;;;;;;5055559;28;20143;-58
2022/11/24 02:16:48;;;;;;;5.43;1.55;;;17.80;46.30;;;;;;5020851;28;20072;-57
2022/11/24 02:19:30;;;;;;;7.75;2.03;;;17.80;46.30;;;;;;5054587;28;20051;-56
2022/11/24 02:21:56;;;;;;;5.20;1.50;;;17.80;46.30;;;;;;5054892;28;20515;-57
2022/11/24 02:24:42;;;;;;;6.15;1.95;;;17.80;46.90;;;;;;5037394;28;20124;-58
2022/11/24 02:27:09;;;;;;;4.15;1.40;;;17.80;46.20;;;;;;5037587;28;20433;-53
2022/11/24 02:29:36;;;;;;;4.45;1.48;;;17.80;46.20;;;;;;5020871;28;20033;-58
2022/11/24 02:32:05;;;;;;;5.80;1.60;;;17.80;46.30;;;;;;5037079;28;20033;-57
2022/11/24 02:34:31;;;;;;;5.70;1.98;;;17.80;46.20;;;;;;5020802;28;20036;-57
2022/11/24 02:36:57;;;;;;;3.90;1.60;;;17.80;46.20;;;;;;5036968;28;20112;-58
2022/11/24 02:39:23;;;;;;;4.97;1.77;;;17.80;46.30;;;;;;5037544;28;20029;-53
2022/11/24 02:41:53;;;;;;;4.22;1.52;;;17.80;46.20;;;;;;5054888;28;20441;-55
2022/11/24 02:44:22;;;;;;;5.70;1.60;;;17.80;46.20;;;;;;5037199;28;20041;-57
2022/11/24 02:46:48;;;;;;;4.53;1.77;;;17.80;46.20;;;;;;5054880;28;20102;-53
2022/11/24 02:49:15;;;;;;;4.43;1.55;;;17.80;46.20;;;;;;5054415;28;20395;-56
2022/11/24 02:51:41;;;;;;;6.05;1.80;;;17.80;46.20;;;;;;5054814;28;20399;-56
2022/11/24 02:54:06;;;;;;;4.28;1.48;;;17.80;46.80;;;;;;5054680;28;20057;-57
2022/11/24 02:56:32;;;;;;;5.03;1.40;;;17.80;46.20;;;;;;5054281;28;20036;-55
2022/11/24 02:58:58;;;;;;;4.05;1.55;;;17.80;46.20;;;;;;5037283;28;20158;-57
2022/11/24 03:01:24;;;;;;;3.72;1.55;;;17.80;46.10;;;;;;5054403;28;20119;-59
2022/11/24 03:03:50;;;;;;;3.25;1.33;;;17.80;46.10;;;;;;5054923;28;20025;-56
2022/11/24 03:06:16;;;;;;;6.03;1.88;;;17.80;46.10;;;;;;5054523;28;20044;-58
2022/11/24 03:08:42;;;;;;;6.22;1.70;;;17.80;46.10;;;;;;5054277;28;20037;-56
2022/11/24 03:11:08;;;;;;;5.40;1.63;;;17.80;46.10;;;;;;5039328;28;20029;-53
2022/11/24 03:13:34;;;;;;;5.63;1.60;;;17.80;46.10;;;;;;5024372;28;20113;-56
2022/11/24 03:16:00;;;;;;;5.38;1.80;;;17.80;46.60;;;;;;5058318;28;20060;-59
2022/11/24 03:18:26;;;;;;;4.82;1.70;;;17.80;46.10;;;;;;5058390;28;20052;-56
2022/11/24 03:20:52;;;;;;;6.75;1.70;;;17.80;46.00;;;;;;5058338;28;20032;-57
2022/11/24 03:23:17;;;;;;;5.05;1.60;;;17.80;46.00;;;;;;5058817;28;20119;-57
2022/11/24 03:25:43;;;;;;;5.95;1.88;;;17.80;46.00;;;;;;5058337;28;20387;-54
2022/11/24 03:28:09;;;;;;;6.35;1.60;;;17.80;46.00;;;;;;5058822;28;20039;-56
2022/11/24 03:30:35;;;;;;;4.15;1.67;;;17.80;46.00;;;;;;5058070;28;20041;-58
2022/11/24 03:33:01;;;;;;;6.22;1.50;;;17.80;46.00;;;;;;5040497;28;20093;-57
2022/11/24 03:35:27;;;;;;;5.07;1.67;;;17.80;46.00;;;;;;5040804;28;20115;-58
2022/11/24 03:37:52;;;;;;;4.68;1.73;;;17.80;45.90;;;;;;5058413;28;20392;-58
2022/11/24 03:40:18;;;;;;;6.57;2.00;;;17.80;45.90;;;;;;5058923;28;20301;-59
2022/11/24 03:42:44;;;;;;;4.57;1.30;;;17.80;45.90;;;;;;5057610;28;20428;-57
2022/11/24 03:45:10;;;;;;;5.30;1.70;;;17.80;45.90;;;;;;5057991;28;20037;-59
2022/11/24 03:47:36;;;;;;;4.10;1.77;;;17.70;45.90;;;;;;5058217;28;20033;-55
2022/11/24 03:50:02;;;;;;;5.05;1.80;;;17.80;45.90;;;;;;5057780;28;20040;-59
2022/11/24 03:52:28;;;;;;;4.25;1.33;;;17.80;45.90;;;;;;5057759;28;20029;-55
2022/11/24 03:54:54;;;;;;;7.13;1.95;;;17.80;45.90;;;;;;5057864;28;20028;-59
2022/11/24 03:57:20;;;;;;;4.53;1.52;;;17.70;45.90;;;;;;5040017;28;20361;-57
2022/11/24 03:59:46;;;;;;;5.60;1.75;;;17.80;46.00;;;;;;5057965;28;20032;-60
2022/11/24 04:02:12;;;;;;;5.22;1.67;;;17.80;46.00;;;;;;5057915;28;20036;-59
2022/11/24 04:04:38;;;;;;;4.88;1.65;;;17.80;46.00;;;;;;5040126;28;20106;-55
2022/11/24 04:07:03;;;;;;;4.07;1.20;;;17.80;46.00;;;;;;5057639;28;20033;-59
2022/11/24 04:09:29;;;;;;;5.53;1.70;;;17.80;46.00;;;;;;5057006;28;20037;-58
2022/11/24 04:14:40;;;;;;;7.65;2.00;;;17.80;46.00;;;;;;5057862;28;20040;-58
2022/11/24 04:17:06;;;;;;;6.03;1.42;;;17.80;46.00;;;;;;5057423;28;20116;-58
2022/11/24 04:19:31;;;;;;;5.30;1.67;;;17.70;45.90;;;;;;5057174;28;20137;-57
2022/11/24 04:21:57;;;;;;;4.75;1.65;;;17.70;45.90;;;;;;5056312;28;20036;-55
2022/11/24 04:24:23;;;;;;;5.00;1.67;;;17.70;45.90;;;;;;5039862;28;20456;-59
2022/11/24 04:26:49;;;;;;;6.43;1.75;;;17.80;46.00;;;;;;5039396;28;20028;-59
2022/11/24 04:29:14;;;;;;;7.75;1.75;;;17.70;45.90;;;;;;5057433;28;20044;-60
2022/11/24 04:31:40;;;;;;;5.70;1.80;;;17.70;45.90;;;;;;5039400;28;20456;-57
2022/11/24 04:34:06;;;;;;;5.18;2.05;;;17.80;46.00;;;;;;5057716;28;20036;-57
2022/11/24 04:36:32;;;;;;;5.25;1.90;;;17.80;46.00;;;;;;5039492;28;20089;-58
2022/11/24 04:38:57;;;;;;;5.78;1.85;;;17.80;46.00;;;;;;5057085;28;20440;-58
2022/11/24 04:41:23;;;;;;;5.63;1.77;;;17.70;45.90;;;;;;5039614;28;20040;-56
2022/11/24 04:43:49;;;;;;;6.38;1.73;;;17.70;45.90;;;;;;5057230;28;20041;-58
2022/11/24 04:46:15;;;;;;;3.75;1.73;;;17.70;45.90;;;;;;5057032;28;20063;-57
2022/11/24 04:48:41;;;;;;;6.18;2.05;;;17.80;46.00;;;;;;5056581;28;20452;-55
2022/11/24 04:51:07;;;;;;;5.47;1.60;;;17.80;46.00;;;;;;5056997;28;20458;-58
2022/11/24 04:53:32;;;;;;;6.20;1.80;;;17.70;45.90;;;;;;5038955;28;20051;-58
2022/11/24 04:55:58;;;;;;;7.22;2.00;;;17.80;46.00;;;;;;5039404;28;20033;-55
2022/11/24 04:58:24;;;;;;;6.60;2.15;;;17.70;46.00;;;;;;5056431;28;20440;-59
2022/11/24 05:00:50;;;;;;;6.45;1.80;;;17.80;46.00;;;;;;5039414;28;20351;-57
2022/11/24 05:03:16;;;;;;;5.15;1.60;;;17.80;46.00;;;;;;5038864;28;20027;-57
2022/11/24 05:05:41;;;;;;;5.50;2.03;;;17.70;46.00;;;;;;5056493;28;20449;-58
2022/11/24 05:08:07;;;;;;;5.47;1.90;;;17.80;46.00;;;;;;5056515;28;20029;-58
2022/11/24 05:10:36;;;;;;;6.43;2.10;;;17.70;46.00;;;;;;5056457;28;20091;-58
2022/11/24 05:13:05;;;;;;;5.63;1.88;;;17.70;46.00;;;;;;5056216;28;20025;-58
2022/11/24 05:15:31;;;;;;;6.07;2.00;;;17.70;46.00;;;;;;5056852;28;20040;-56
2022/11/24 05:17:57;;;;;;;5.40;1.88;;;17.70;46.00;;;;;;5056166;28;20041;-55
2022/11/24 05:20:24;;;;;;;5.20;1.85;;;17.80;46.10;;;;;;5055703;28;20041;-56
2022/11/24 05:22:50;;;;;;;5.68;1.80;;;17.70;46.00;;;;;;5056361;28;20040;-57
2022/11/24 05:25:16;;;;;;;5.30;1.73;;;17.70;46.00;;;;;;5055570;28;20033;-59
2022/11/24 05:27:42;;;;;;;3.75;1.70;;;17.80;46.10;;;;;;5055520;28;20049;-55
2022/11/24 05:30:08;;;;;;;5.03;1.52;;;17.70;46.00;;;;;;5056104;28;20032;-58
2022/11/24 05:32:34;;;;;;;5.47;1.90;;;17.70;46.00;;;;;;5021575;28;20112;-59
2022/11/24 05:35:01;;;;;;;4.50;1.45;;;17.70;46.60;;;;;;5055982;28;20116;-59
2022/11/24 05:37:27;;;;;;;3.90;1.70;;;17.70;46.00;;;;;;5038460;28;20025;-57
2022/11/24 05:39:53;;;;;;;3.70;1.30;;;17.80;46.00;;;;;;5056090;28;20139;-59
2022/11/24 05:45:04;;;;;;;4.25;1.45;;;17.70;45.90;;;;;;5055814;28;20071;-59
2022/11/24 05:47:30;;;;;;;4.35;1.30;;;17.70;45.90;;;;;;5055634;28;20455;-55
2022/11/24 05:49:56;;;;;;;5.05;1.70;;;17.70;45.90;;;;;;5038215;28;20091;-56
2022/11/24 05:52:22;;;;;;;4.55;1.45;;;17.70;45.90;;;;;;5037800;28;20041;-59
2022/11/24 05:54:48;;;;;;;3.42;1.17;;;17.70;45.90;;;;;;5055469;28;20029;-60
2022/11/24 05:57:15;;;;;;;4.18;1.60;;;17.70;45.90;;;;;;5055812;28;20055;-59
2022/11/24 05:59:41;;;;;;;3.17;1.25;;;17.80;46.00;;;;;;5037576;28;20361;-60
2022/11/24 06:02:08;;;;;;;3.53;1.08;;;17.70;46.00;;;;;;5055274;28;20075;-59
2022/11/24 06:04:35;;;;;;;3.60;1.30;;;17.70;46.00;;;;;;5055392;28;20029;-55
2022/11/24 06:07:01;;;;;;;5.97;1.45;;;17.70;45.90;;;;;;5055567;28;20035;-57
2022/11/24 06:09:27;;;;;;;3.17;1.00;;;17.70;46.00;;;;;;5055021;28;20037;-60
2022/11/24 06:11:53;;;;;;;3.47;1.27;;;17.70;45.90;;;;;;5037942;28;20052;-57
2022/11/24 06:14:19;;;;;;;3.60;1.10;;;17.70;45.90;;;;;;5055411;28;20444;-59
2022/11/24 06:16:46;;;;;;;3.13;0.93;;;17.70;45.90;;;;;;5037619;28;20100;-55
2022/11/24 06:19:11;;;;;;;3.20;1.25;;;17.70;45.90;;;;;;5034101;28;20353;-56
2022/11/24 06:21:37;;;;;;;2.25;1.00;;;17.70;45.90;;;;;;5035138;28;20036;-58
2022/11/24 06:24:04;;;;;;;2.63;1.08;;;17.70;45.90;;;;;;5035269;28;20041;-57
2022/11/24 06:26:30;;;;;;;2.60;0.90;;;17.70;45.90;;;;;;5034060;28;20171;-60
2022/11/24 06:28:55;;;;;;;2.50;0.90;;;17.70;45.90;;;;;;5034626;28;20132;-56
2022/11/24 06:31:21;;;;;;;2.13;0.85;;;17.70;45.80;;;;;;5033653;28;20026;-56
2022/11/24 06:33:47;;;;;;;2.65;1.08;;;17.70;45.80;;;;;;5034930;28;20161;-55
2022/11/24 06:36:14;;;;;;;3.08;0.93;;;17.70;45.90;;;;;;5035139;28;20029;-55
2022/11/24 06:38:40;;;;;;;2.97;1.00;;;17.70;45.90;;;;;;5033827;28;20056;-58
2022/11/24 06:41:08;;;;;;;1.85;0.77;;;17.70;45.90;;;;;;5034839;28;20449;-58
2022/11/24 06:43:35;;;;;;;3.33;0.98;;;17.70;45.90;;;;;;5034863;28;20065;-60
2022/11/24 06:46:01;;;;;;;1.58;0.82;;;17.70;45.90;;;;;;5034028;28;20029;-57
2022/11/24 06:48:27;;;;;;;2.70;0.90;;;17.70;45.90;;;;;;5034756;28;20128;-60
2022/11/24 06:50:57;;;;;;;2.67;1.00;;;17.70;46.00;;;;;;5035561;28;20037;-58
2022/11/24 06:53:22;;;;;;;1.95;0.77;;;17.70;46.00;;;;;;5033488;28;20079;-59
2022/11/24 06:55:49;;;;;;;2.45;0.80;;;17.70;46.10;;;;;;5034811;28;20025;-56
2022/11/24 06:58:15;;;;;;;1.85;0.60;;;17.70;46.10;;;;;;5034819;28;20021;-55
2022/11/24 07:00:41;;;;;;;2.72;0.80;;;17.70;46.20;;;;;;5035140;28;20052;-60
2022/11/24 07:03:09;;;;;;;1.70;0.70;;;17.70;46.30;;;;;;5033344;28;20048;-58
2022/11/24 07:05:34;;;;;;;1.30;0.60;;;17.70;46.30;;;;;;5034911;28;20041;-58
2022/11/24 07:08:00;;;;;;;2.90;0.70;;;17.70;46.30;;;;;;5033626;28;20045;-56
2022/11/24 07:10:26;;;;;;;2.63;0.90;;;17.70;46.40;;;;;;5016862;28;20034;-59
2022/11/24 07:12:52;;;;;;;2.33;0.65;;;17.70;46.40;;;;;;5034759;28;20033;-58
2022/11/24 07:15:18;;;;;;;2.17;1.00;;;17.70;46.50;;;;;;5034985;28;20400;-57
2022/11/24 07:17:43;;;;;;;2.28;1.02;;;17.70;46.50;;;;;;5037038;28;20413;-59
2022/11/24 07:20:09;;;;;;;2.28;1.00;;;17.70;46.50;;;;;;5054235;28;20039;-59
2022/11/24 07:22:35;;;;;;;1.83;0.70;;;17.70;46.60;;;;;;5054222;28;20159;-58
2022/11/24 07:25:01;;;;;;;0.90;0.50;;;17.70;46.60;;;;;;5054652;28;20029;-56
2022/11/24 07:27:27;;;;;;;2.33;0.90;;;17.70;46.50;;;;;;5054501;28;20051;-60
2022/11/24 07:29:53;;;;;;;1.70;0.60;;;17.70;46.50;;;;;;5054454;28;20043;-59
2022/11/24 07:32:19;;;;;;;1.92;0.75;;;17.70;46.60;;;;;;5037095;28;20033;-57
2022/11/24 07:34:45;;;;;;;1.67;0.65;;;17.70;46.60;;;;;;5054475;28;20029;-59
2022/11/24 07:37:10;;;;;;;2.50;0.80;;;17.70;46.60;;;;;;5054157;28;20390;-59
2022/11/24 07:39:36;;;;;;;1.50;0.70;;;17.70;46.60;;;;;;5036686;28;20039;-60
2022/11/24 07:42:04;;;;;;;3.33;1.00;;;17.70;46.60;;;;;;5036673;28;20139;-60
2022/11/24 07:44:30;;;;;;;1.73;0.60;;;17.70;46.70;;;;;;5054130;28;20029;-55
2022/11/24 07:46:55;;;;;;;1.10;0.50;;;17.70;46.70;;;;;;5054010;28;20048;-59
2022/11/24 07:49:21;;;;;;;2.10;0.75;;;17.70;46.70;;;;;;5054211;28;20041;-58
2022/11/24 07:51:47;;;;;;;2.42;1.00;;;17.70;46.70;;;;;;5053957;28;20039;-59
2022/11/24 07:54:13;;;;;;;2.40;0.80;;;17.70;46.70;;;;;;5054671;28;20076;-59
2022/11/24 07:56:39;;;;;;;2.33;0.93;;;17.70;46.70;;;;;;5055227;28;20060;-55
2022/11/24 07:59:05;;;;;;;2.55;1.20;;;17.80;46.80;;;;;;5057368;28;20033;-57
2022/11/24 08:01:31;;;;;;;2.10;0.88;;;17.70;46.70;;;;;;5057533;28;20120;-59
2022/11/24 08:03:57;;;;;;;3.17;1.00;;;17.70;46.70;;;;;;5057091;28;20071;-59
2022/11/24 08:06:22;;;;;;;2.05;0.90;;;17.80;46.80;;;;;;5057352;28;20087;-57
2022/11/24 08:08:48;;;;;;;2.00;0.90;;;17.70;46.70;;;;;;5057293;28;20052;-59
2022/11/24 08:11:16;;;;;;;2.10;0.75;;;17.80;46.80;;;;;;5057402;28;20100;-59
2022/11/24 08:13:43;;;;;;;2.08;0.90;;;17.70;46.80;;;;;;5056985;28;20488;-59
2022/11/24 08:16:14;;;;;;;1.85;0.70;;;17.70;46.70;;;;;;5039546;28;20028;-59
2022/11/24 08:18:41;;;;;;;1.33;0.73;;;17.80;46.80;;;;;;5057079;28;20057;-58
2022/11/24 08:21:12;;;;;;;2.65;0.80;;;17.70;46.70;;;;;;5039563;28;20461;-59
2022/11/24 08:23:39;;;;;;;1.92;0.80;;;17.80;46.80;;;;;;5040003;28;20040;-54
2022/11/24 08:26:07;;;;;;;3.88;1.05;;;17.80;46.80;;;;;;5039585;28;20087;-56
2022/11/24 08:28:34;;;;;;;1.92;0.73;;;17.80;46.80;;;;;;5056794;28;20068;-55
2022/11/24 08:31:08;;;;;;;1.17;0.57;;;17.80;46.80;;;;;;5057034;28;20025;-59
2022/11/24 08:33:35;;;;;;;1.70;0.88;;;17.80;46.80;;;;;;5056636;28;20464;-56
2022/11/24 08:36:09;;;;;;;1.83;0.90;;;17.80;46.80;;;;;;5056897;28;20120;-58
2022/11/24 08:38:35;;;;;;;2.50;0.90;;;17.80;46.80;;;;;;5056753;28;20035;-54
2022/11/24 08:41:07;;;;;;;4.93;1.33;;;17.80;46.80;;;;;;5056812;28;20039;-58
2022/11/24 08:43:33;;;;;;;1.15;0.60;;;17.80;46.80;;;;;;5056912;28;20028;-55
2022/11/24 08:46:03;;;;;;;2.03;0.60;;;17.80;46.80;;;;;;5056835;28;20028;-60
2022/11/24 08:48:29;;;;;;;1.70;0.70;;;17.80;46.80;;;;;;5056656;28;20045;-58
2022/11/24 08:50:56;;;;;;;2.40;0.88;;;17.80;46.80;;;;;;5056465;28;20510;-59
2022/11/24 08:53:24;;;;;;;2.42;0.82;;;17.80;46.80;;;;;;5039593;28;20039;-58
2022/11/24 08:55:50;;;;;;;2.83;1.02;;;17.80;46.80;;;;;;5056923;28;20029;-57
2022/11/24 08:58:16;;;;;;;3.17;0.95;;;17.80;46.80;;;;;;5056664;28;20098;-54
2022/11/24 09:00:43;;;;;;;1.88;0.80;;;17.80;46.80;;;;;;5056657;28;20029;-57
2022/11/24 09:03:10;;;;;;;3.08;1.33;;;17.80;46.90;;;;;;5039202;28;20040;-57
2022/11/24 09:05:36;;;;;;;2.60;1.00;;;17.80;46.90;;;;;;5038751;28;20313;-58
2022/11/24 09:08:02;;;;;;;1.98;0.85;;;17.80;46.90;;;;;;5037935;28;20043;-56
2022/11/24 09:10:28;;;;;;;1.42;0.60;;;17.80;46.90;;;;;;5056332;28;20102;-58
2022/11/24 09:12:54;;;;;;;2.20;1.02;;;17.80;47.00;;;;;;5038173;28;20028;-58
2022/11/24 09:15:20;;;;;;;4.00;1.13;;;17.80;46.90;;;;;;5056269;28;20029;-55
2022/11/24 09:17:46;;;;;;;1.98;0.80;;;17.80;47.00;;;;;;5056019;28;20025;-55
2022/11/24 09:20:12;;;;;;;2.47;0.80;;;17.80;47.00;;;;;;5056123;28;20052;-58
2022/11/24 09:22:40;;;;;;;1.83;1.00;;;17.80;47.00;;;;;;5056797;28;20021;-59
2022/11/24 09:25:06;;;;;;;2.58;1.00;;;17.80;47.00;;;;;;5056184;28;20043;-59
2022/11/24 09:27:32;;;;;;;3.33;0.95;;;17.90;47.00;;;;;;5038196;28;20036;-58
2022/11/24 09:29:58;;;;;;;2.92;0.98;;;17.80;47.00;;;;;;5038811;28;20075;-56
2022/11/24 09:32:24;;;;;;;2.80;1.13;;;17.90;47.00;;;;;;5055501;28;20452;-52
2022/11/24 09:34:50;;;;;;;3.13;0.90;;;17.90;47.00;;;;;;5056571;28;20452;-56
2022/11/24 09:37:17;;;;;;;1.95;0.80;;;17.90;47.10;;;;;;5037841;28;20037;-55
2022/11/24 09:39:42;;;;;;;2.25;0.90;;;17.90;47.00;;;;;;5037755;28;20043;-57
2022/11/24 09:42:24;;;;;;;2.85;1.00;;;17.90;47.00;;;;;;5037719;28;20112;-58
2022/11/24 09:45:01;;;;;;;3.47;1.10;;;17.90;47.10;;;;;;5055723;28;20033;-55
2022/11/24 09:47:59;;;;;;;3.35;1.08;;;17.90;47.10;;;;;;5055469;28;20032;-56
2022/11/24 09:50:32;;;;;;;3.03;0.85;;;17.90;47.10;;;;;;5055596;28;20033;-59
2022/11/24 09:53:14;;;;;;;4.68;0.93;;;17.90;47.20;;;;;;5037598;28;20024;-59
2022/11/24 09:55:47;;;;;;;2.65;0.80;;;17.90;47.20;;;;;;5055458;28;20119;-54
2022/11/24 09:58:32;;;;;;;3.70;1.00;;;17.90;47.30;;;;;;5037839;28;20047;-58
2022/11/24 10:01:00;;;;;;;1.65;0.80;;;17.90;47.30;;;;;;5021519;28;20051;-57
2022/11/24 10:03:33;;;;;;;1.92;0.80;;;17.90;47.30;;;;;;5037652;28;20086;-56
2022/11/24 10:06:02;;;;;;;2.63;1.17;;;17.90;47.40;;;;;;5037482;28;20064;-57
2022/11/24 10:08:50;;;;;;;1.60;0.70;;;17.90;47.40;;;;;;5037697;28;20048;-57
2022/11/24 10:11:27;;;;;;;2.72;0.90;;;17.90;47.40;;;;;;5037692;28;20041;-58
2022/11/24 10:14:14;;;;;;;2.33;0.88;;;17.90;47.40;;;;;;5054832;28;20448;-59
2022/11/24 10:16:52;;;;;;;1.98;1.00;;;17.90;47.40;;;;;;5037768;28;20076;-58
2022/11/24 10:19:33;;;;;;;3.15;0.90;;;17.90;47.50;;;;;;5036394;28;20136;-59
2022/11/24 10:22:11;;;;;;;1.90;0.63;;;17.90;47.50;;;;;;5054677;28;20068;-58
2022/11/24 10:24:53;;;;;;;2.20;0.90;;;18.00;47.50;;;;;;5037112;28;20044;-58
2022/11/24 10:27:25;;;;;;;2.28;0.90;;;18.00;47.50;;;;;;5054978;28;20043;-55
2022/11/24 10:29:52;;;;;;;2.13;0.90;;;18.00;47.50;;;;;;5037189;28;20041;-59
2022/11/24 10:32:41;;;;;;;2.85;0.73;;;18.00;47.50;;;;;;5054540;28;20032;-57
2022/11/24 10:35:30;;;;;;;2.75;0.93;;;17.90;48.10;;;;;;5055291;28;20420;-59
2022/11/24 10:38:10;;;;;;;1.83;0.73;;;18.00;47.50;;;;;;5054738;28;20033;-59
2022/11/24 10:40:41;;;;;;;3.28;0.80;;;18.00;47.50;;;;;;5055456;28;20043;-56
2022/11/24 10:43:11;;;;;;;2.90;1.10;;;18.00;47.40;;;;;;5037339;28;20112;-54
2022/11/24 10:45:38;;;;;;;2.28;0.95;;;18.00;47.40;;;;;;5054688;28;20040;-58
2022/11/24 10:48:12;;;;;;;3.50;1.00;;;18.00;47.40;;;;;;5036962;28;20056;-60
2022/11/24 10:50:41;;;;;;;3.20;1.00;;;18.00;47.40;;;;;;5054864;28;20072;-56
2022/11/24 10:53:25;;;;;;;4.20;1.30;;;18.00;47.40;;;;;;5037354;28;20037;-55
2022/11/24 10:55:54;;;;;;;3.53;1.17;;;18.00;47.30;;;;;;5054287;28;20033;-57
2022/11/24 10:58:25;;;;;;;3.47;1.00;;;18.00;47.40;;;;;;5037211;28;20033;-60
2022/11/24 11:00:52;;;;;;;2.88;1.35;;;18.00;47.30;;;;;;5037130;28;20043;-60
2022/11/24 11:03:44;;;;;;;2.08;0.80;;;18.00;47.30;;;;;;5054480;28;20032;-59
2022/11/24 11:06:19;;;;;;;3.33;1.05;;;18.00;47.30;;;;;;5054600;28;20033;-59
2022/11/24 11:08:45;;;;;;;3.17;1.00;;;18.00;47.30;;;;;;5036565;28;20036;-58
2022/11/24 11:11:15;;;;;;;2.83;1.02;;;18.00;47.30;;;;;;5037197;28;20041;-57
2022/11/24 11:13:54;;;;;;;4.25;1.02;;;18.10;47.40;;;;;;5036882;28;20095;-51
2022/11/24 11:16:39;;;;;;;3.80;1.08;;;18.00;47.30;;;;;;5054718;28;20321;-59
2022/11/24 11:19:25;;;;;;;2.75;1.10;;;18.10;47.40;;;;;;5036700;28;20048;-57
2022/11/24 11:22:10;;;;;;;4.00;1.10;;;18.10;47.40;;;;;;5036484;28;20040;-57
2022/11/24 11:24:38;;;;;;;3.75;0.95;;;18.10;47.40;;;;;;5054047;28;20052;-60
2022/11/24 11:27:23;;;;;;;4.93;1.25;;;18.10;47.30;;;;;;5036923;28;20068;-58
2022/11/24 11:29:49;;;;;;;4.32;1.30;;;18.10;47.30;;;;;;5054234;28;20099;-57
2022/11/24 11:32:23;;;;;;;3.67;1.10;;;18.10;47.20;;;;;;5056576;28;20075;-57
2022/11/24 11:34:54;;;;;;;3.03;1.00;;;18.10;47.20;;;;;;5058027;28;20414;-59
2022/11/24 11:37:27;;;;;;;5.20;1.45;;;18.10;47.20;;;;;;5057702;28;20440;-57
2022/11/24 11:39:54;;;;;;;4.90;1.35;;;18.10;47.20;;;;;;5058150;28;20104;-58
2022/11/24 11:42:32;;;;;;;3.45;1.20;;;18.10;47.20;;;;;;5058004;28;20045;-56
2022/11/24 11:45:12;;;;;;;5.13;1.15;;;18.10;47.20;;;;;;5058170;28;20028;-56
2022/11/24 11:47:54;;;;;;;4.13;1.33;;;18.10;47.20;;;;;;5058153;28;20098;-55
2022/11/24 11:50:32;;;;;;;3.53;1.25;;;18.10;47.20;;;;;;5039721;28;20464;-56
2022/11/24 11:53:43;;;;;;;3.92;1.20;;;18.10;47.10;;;;;;5057605;28;20043;-55
2022/11/24 11:56:29;;;;;;;3.42;1.20;;;18.20;47.20;;;;;;5042923;28;20051;-59
2022/11/24 11:59:16;;;;;;;3.13;1.27;;;18.10;47.10;;;;;;5057607;28;20050;-57
2022/11/24 12:01:51;;;;;;;3.83;1.30;;;18.20;47.20;;;;;;5057413;28;20039;-56
2022/11/24 12:04:55;;;;;;;3.90;1.10;;;18.20;47.20;;;;;;5040485;28;20033;-54
2022/11/24 12:07:26;;;;;;;4.85;1.60;;;18.20;47.20;;;;;;4976517;28;20069;-59
2022/11/24 12:10:18;;;;;;;4.88;1.52;;;18.20;47.20;;;;;;5043863;28;20136;-56
2022/11/24 12:12:59;;;;;;;4.00;1.55;;;18.20;47.20;;;;;;5056475;28;20037;-57
2022/11/24 12:15:54;;;;;;;3.58;1.17;;;18.20;47.20;;;;;;5057337;28;20029;-55
2022/11/24 12:18:35;;;;;;;;;;;18.20;47.20;;;;;;5039505;28;20067;-56
2022/11/24 12:21:17;;;;;;;4.85;1.40;;;18.20;47.20;;;;;;5039525;28;19931;-57
2022/11/24 12:24:01;;;;;;;3.28;1.33;;;18.20;47.20;;;;;;5057144;28;20086;-59
2022/11/24 12:26:53;;;;;;;3.38;1.45;;;18.20;47.20;;;;;;5057332;28;20411;-57
2022/11/24 12:29:37;;;;;;;5.57;1.40;;;18.20;47.20;;;;;;5057466;28;20037;-58
2022/11/24 12:32:15;;;;;;;5.55;1.73;;;18.20;47.20;;;;;;5057423;28;20035;-59
2022/11/24 12:35:05;;;;;;;4.10;1.20;;;18.20;47.10;;;;;;5056904;28;20029;-59
2022/11/24 12:37:43;;;;;;;5.30;1.50;;;18.20;47.10;;;;;;5056565;28;20338;-57
2022/11/24 12:40:40;;;;;;;4.60;1.33;;;18.20;47.10;;;;;;5039246;28;20094;-58
2022/11/24 12:43:35;;;;;;;5.25;1.52;;;18.20;47.10;;;;;;5055739;28;20025;-55
2022/11/24 12:46:06;;;;;;;3.70;1.38;;;18.30;47.20;;;;;;5057020;28;20124;-58
2022/11/24 12:49:10;;;;;;;4.25;1.35;;;18.30;47.20;;;;;;5056985;28;20029;-58
2022/11/24 12:51:43;;;;;;;5.95;1.65;;;18.30;47.20;;;;;;5041979;28;20049;-59
2022/11/24 12:54:13;;;;;;;4.80;1.50;;;18.30;47.20;;;;;;5057156;28;20037;-58
2022/11/24 12:56:51;;;;;;;3.75;1.20;;;18.30;47.20;;;;;;5056503;28;20037;-56
2022/11/24 12:59:26;;;;;;;5.80;1.50;;;18.30;47.10;;;;;;5056762;28;20029;-59
2022/11/24 13:02:20;;;;;;;6.05;2.13;;;18.30;47.10;;;;;;5038862;28;20029;-57
2022/11/24 13:05:16;;;;;;;7.10;1.98;;;18.30;47.10;;;;;;5057058;28;20037;-57
2022/11/24 13:07:47;;;;;;;5.13;1.65;;;18.30;47.00;;;;;;5025399;28;20087;-60
2022/11/24 13:10:25;;;;;;;6.05;1.48;;;18.30;47.00;;;;;;5038694;28;20075;-53